createdAt,value
2023-03-07T00:00:05.394Z,40.20
2023-03-07T00:02:32.469Z,45.37
2023-03-07T00:04:59.596Z,41.35
2023-03-07T00:07:26.831Z,43.17
2023-03-07T00:09:53.998Z,37.28
2023-03-07T00:12:22.478Z,40.95
2023-03-07T00:14:49.510Z,38.95
2023-03-07T00:17:16.762Z,38.50
2023-03-07T00:19:43.967Z,40.55
2023-03-07T00:22:14.462Z,40.38
2023-03-07T00:24:41.759Z,42.60
2023-03-07T00:27:09.199Z,38.20
2023-03-07T00:29:36.289Z,37.22
2023-03-07T00:32:03.610Z,36.67
2023-03-07T00:34:30.744Z,35.80
2023-03-07T00:36:57.813Z,40.00
2023-03-07T00:39:25.033Z,37.20
2023-03-07T00:41:52.124Z,39.90
2023-03-07T00:44:19.281Z,34.47
2023-03-07T00:46:46.678Z,34.00
2023-03-07T00:49:13.918Z,32.90
2023-03-07T00:51:41.042Z,32.70
2023-03-07T00:54:08.203Z,33.95
2023-03-07T00:56:36.308Z,34.38
2023-03-07T00:59:04.001Z,33.33
2023-03-07T01:01:31.181Z,32.92
2023-03-07T01:03:58.460Z,38.08
2023-03-07T01:06:28.717Z,38.10
2023-03-07T01:08:58.520Z,35.83
2023-03-07T01:13:59.281Z,37.08
2023-03-07T01:16:35.169Z,37.03
2023-03-07T01:19:05.646Z,35.40
2023-03-07T01:21:38.768Z,35.00
2023-03-07T01:24:07.385Z,36.75
2023-03-07T01:26:35.358Z,40.13
2023-03-07T01:29:05.074Z,36.95
2023-03-07T01:31:35.301Z,37.58
2023-03-07T01:34:03.218Z,40.28
2023-03-07T01:36:34.794Z,34.58
2023-03-07T01:39:14.675Z,41.88
2023-03-07T01:42:02.289Z,34.92
2023-03-07T01:44:30.233Z,36.88
2023-03-07T01:47:00.249Z,39.17
2023-03-07T01:49:39.059Z,40.45
2023-03-07T01:52:14.076Z,41.95
2023-03-07T01:54:50.553Z,36.78
2023-03-07T01:57:23.843Z,44.80
2023-03-07T01:59:54.476Z,41.75
2023-03-07T02:02:23.090Z,42.05
2023-03-07T02:05:01.151Z,40.40
2023-03-07T02:07:33.621Z,43.30
2023-03-07T02:10:01.966Z,45.72
2023-03-07T02:12:29.446Z,44.42
2023-03-07T02:14:56.676Z,47.20
2023-03-07T02:17:25.030Z,42.83
2023-03-07T02:20:07.228Z,49.95
2023-03-07T02:22:34.441Z,50.65
2023-03-07T02:25:09.065Z,47.65
2023-03-07T02:27:38.079Z,48.03
2023-03-07T02:30:07.972Z,47.95
2023-03-07T02:32:35.235Z,49.00
2023-03-07T02:35:02.391Z,48.35
2023-03-07T02:37:34.848Z,49.20
2023-03-07T02:40:07.278Z,47.53
2023-03-07T02:42:38.191Z,56.88
2023-03-07T02:45:13.000Z,53.80
2023-03-07T02:47:43.436Z,59.47
2023-03-07T02:50:14.390Z,60.60
2023-03-07T02:52:44.113Z,58.03
2023-03-07T02:55:12.012Z,59.78
2023-03-07T02:57:44.829Z,54.72
2023-03-07T03:00:15.352Z,63.83
2023-03-07T03:02:42.480Z,66.13
2023-03-07T03:05:09.656Z,59.83
2023-03-07T03:07:36.742Z,68.15
2023-03-07T03:10:04.473Z,61.55
2023-03-07T03:12:32.883Z,62.40
2023-03-07T03:15:00.303Z,61.25
2023-03-07T03:17:27.394Z,66.00
2023-03-07T03:19:54.729Z,66.30
2023-03-07T03:22:21.985Z,63.92
2023-03-07T03:24:51.119Z,65.85
2023-03-07T03:27:19.665Z,66.50
2023-03-07T03:29:49.520Z,73.95
2023-03-07T03:32:17.031Z,69.97
2023-03-07T03:34:45.339Z,63.78
2023-03-07T03:37:12.731Z,68.45
2023-03-07T03:39:39.963Z,61.47
2023-03-07T03:42:07.366Z,63.50
2023-03-07T03:44:34.528Z,60.72
2023-03-07T03:47:02.479Z,54.70
2023-03-07T03:49:29.725Z,57.85
2023-03-07T03:51:56.751Z,62.33
2023-03-07T03:54:24.722Z,66.88
2023-03-07T03:56:55.124Z,57.97
2023-03-07T03:59:22.617Z,52.17
2023-03-07T04:01:50.948Z,57.33
2023-03-07T04:04:19.284Z,62.40
2023-03-07T04:06:46.447Z,61.88
2023-03-07T04:09:13.584Z,61.92
2023-03-07T04:11:43.441Z,76.65
2023-03-07T04:14:10.990Z,76.90
2023-03-07T04:16:38.119Z,83.18
2023-03-07T04:19:05.330Z,79.07
2023-03-07T04:21:32.479Z,82.43
2023-03-07T04:24:00.422Z,79.35
2023-03-07T04:26:30.243Z,75.22
2023-03-07T04:28:57.453Z,60.45
2023-03-07T04:31:34.010Z,58.35
2023-03-07T04:34:03.469Z,44.80
2023-03-07T04:36:31.175Z,51.95
2023-03-07T04:38:58.278Z,49.08
2023-03-07T04:41:29.368Z,43.38
2023-03-07T04:44:17.531Z,40.13
2023-03-07T04:46:44.635Z,34.30
2023-03-07T04:49:12.002Z,42.50
2023-03-07T04:51:43.010Z,36.38
2023-03-07T04:54:11.881Z,41.00
2023-03-07T04:56:39.452Z,37.72
2023-03-07T04:59:09.057Z,40.78
2023-03-07T05:01:36.171Z,51.75
2023-03-07T05:04:04.109Z,52.88
2023-03-07T05:06:31.405Z,47.25
2023-03-07T05:08:58.876Z,48.20
2023-03-07T05:11:26.276Z,43.45
2023-03-07T05:13:53.993Z,54.30
2023-03-07T05:16:22.837Z,45.80
2023-03-07T05:18:50.318Z,51.88
2023-03-07T05:21:17.943Z,58.85
2023-03-07T05:23:45.290Z,52.97
2023-03-07T05:26:13.405Z,47.97
2023-03-07T05:28:41.272Z,45.22
2023-03-07T05:31:08.607Z,42.88
2023-03-07T05:33:35.739Z,47.38
2023-03-07T05:36:03.974Z,46.30
2023-03-07T05:38:32.600Z,39.78
2023-03-07T05:40:59.959Z,37.58
2023-03-07T05:43:27.709Z,38.83
2023-03-07T05:45:55.018Z,45.40
2023-03-07T05:48:22.142Z,48.28
2023-03-07T05:50:49.344Z,46.85
2023-03-07T05:53:18.084Z,45.97
2023-03-07T05:55:46.131Z,42.67
2023-03-07T05:58:15.089Z,43.83
2023-03-07T06:00:44.357Z,45.75
2023-03-07T06:03:11.496Z,51.17
2023-03-07T06:05:39.396Z,44.17
2023-03-07T06:08:07.373Z,40.40
2023-03-07T06:10:35.145Z,41.70
2023-03-07T06:13:03.875Z,50.38
2023-03-07T06:15:31.371Z,45.63
2023-03-07T06:18:03.567Z,48.78
2023-03-07T06:20:30.750Z,38.63
2023-03-07T06:22:57.928Z,47.22
2023-03-07T06:25:25.082Z,51.95
2023-03-07T06:27:52.512Z,45.10
2023-03-07T06:30:19.751Z,46.60
2023-03-07T06:32:46.889Z,44.78
2023-03-07T06:35:14.035Z,50.17
2023-03-07T06:37:41.342Z,46.85
2023-03-07T06:40:10.933Z,50.92
2023-03-07T06:42:39.825Z,45.40
2023-03-07T06:45:08.891Z,45.95
2023-03-07T06:47:35.978Z,50.03
2023-03-07T06:50:04.710Z,51.40
2023-03-07T06:52:33.578Z,43.37
2023-03-07T06:55:01.491Z,51.45
2023-03-07T06:57:30.078Z,48.77
2023-03-07T06:59:57.305Z,56.47
2023-03-07T07:02:24.852Z,59.78
2023-03-07T07:04:52.213Z,60.97
2023-03-07T07:07:19.534Z,62.00
2023-03-07T07:09:46.800Z,63.22
2023-03-07T07:12:13.886Z,64.60
2023-03-07T07:14:40.991Z,60.92
2023-03-07T07:17:08.501Z,69.60
2023-03-07T07:19:35.611Z,75.95
2023-03-07T07:22:03.174Z,74.47
2023-03-07T07:24:30.684Z,70.43
2023-03-07T07:26:58.445Z,72.40
2023-03-07T07:29:26.308Z,76.85
2023-03-07T07:31:54.362Z,66.07
2023-03-07T07:34:21.724Z,77.72
2023-03-07T07:36:48.879Z,77.80
2023-03-07T07:39:17.435Z,71.20
2023-03-07T07:41:46.372Z,81.63
2023-03-07T07:44:14.921Z,80.53
2023-03-07T07:46:53.845Z,87.75
2023-03-07T07:49:21.424Z,78.40
2023-03-07T07:51:48.640Z,84.47
2023-03-07T07:54:15.813Z,74.55
2023-03-07T07:56:43.154Z,77.18
2023-03-07T07:59:10.812Z,75.75
2023-03-07T08:01:38.192Z,81.60
2023-03-07T08:04:05.692Z,83.63
2023-03-07T08:06:32.820Z,73.68
2023-03-07T08:09:00.529Z,84.07
2023-03-07T08:11:27.843Z,81.25
2023-03-07T08:13:55.325Z,78.05
2023-03-07T08:16:23.570Z,80.15
2023-03-07T08:18:58.405Z,74.82
2023-03-07T08:21:26.260Z,78.75
2023-03-07T08:23:55.510Z,77.45
2023-03-07T08:26:23.121Z,73.00
2023-03-07T08:28:52.461Z,76.05
2023-03-07T08:31:23.765Z,71.18
2023-03-07T08:33:52.030Z,77.03
2023-03-07T08:36:19.483Z,81.43
2023-03-07T08:38:51.996Z,73.78
2023-03-07T08:41:20.901Z,78.03
2023-03-07T08:43:48.723Z,73.43
2023-03-07T08:46:16.353Z,76.47
2023-03-07T08:48:43.776Z,77.28
2023-03-07T08:51:15.211Z,73.68
2023-03-07T08:53:43.377Z,78.97
2023-03-07T08:56:13.404Z,71.35
2023-03-07T08:58:41.694Z,72.68
2023-03-07T09:01:09.246Z,72.50
2023-03-07T09:03:37.638Z,75.90
2023-03-07T09:06:05.948Z,74.30
2023-03-07T09:08:33.548Z,73.90
2023-03-07T09:11:03.765Z,78.05
2023-03-07T09:13:33.070Z,68.80
2023-03-07T09:16:05.166Z,78.82
2023-03-07T09:18:32.644Z,71.95
2023-03-07T09:21:06.762Z,76.35
2023-03-07T09:23:34.523Z,75.82
2023-03-07T09:26:02.331Z,74.03
2023-03-07T09:28:29.495Z,72.40
2023-03-07T09:30:56.720Z,69.90
2023-03-07T09:33:24.322Z,67.97
2023-03-07T09:35:51.683Z,69.57
2023-03-07T09:38:19.037Z,64.40
2023-03-07T09:40:48.107Z,67.55
2023-03-07T09:43:33.838Z,62.20
2023-03-07T09:46:32.718Z,67.00
2023-03-07T09:49:08.842Z,62.65
2023-03-07T09:51:44.319Z,59.80
2023-03-07T09:54:17.452Z,65.07
2023-03-07T09:56:57.887Z,61.55
2023-03-07T09:59:38.647Z,60.47
2023-03-07T10:02:18.868Z,61.13
2023-03-07T10:07:16.856Z,61.85
2023-03-07T10:09:45.836Z,62.58
2023-03-07T10:12:34.843Z,65.88
2023-03-07T10:15:03.839Z,65.03
2023-03-07T10:18:06.783Z,63.03
2023-03-07T10:20:45.924Z,59.35
2023-03-07T10:23:29.295Z,64.20
2023-03-07T10:26:11.685Z,60.75
2023-03-07T10:28:42.692Z,59.75
2023-03-07T10:31:17.920Z,61.05
2023-03-07T10:33:49.766Z,59.30
2023-03-07T10:36:22.364Z,62.53
2023-03-07T10:39:21.362Z,65.25
2023-03-07T10:41:49.365Z,61.95
2023-03-07T10:44:20.923Z,65.72
2023-03-07T10:46:56.378Z,74.65
2023-03-07T10:49:38.155Z,61.25
2023-03-07T10:52:47.278Z,58.22
2023-03-07T10:55:43.305Z,61.35
2023-03-07T10:58:16.434Z,58.78
2023-03-07T11:00:44.809Z,53.97
2023-03-07T11:03:29.371Z,52.30
2023-03-07T11:05:56.429Z,53.55
2023-03-07T11:08:28.555Z,55.03
2023-03-07T11:10:55.971Z,49.65
2023-03-07T11:13:24.693Z,52.67
2023-03-07T11:16:00.221Z,51.00
2023-03-07T11:18:42.447Z,51.92
2023-03-07T11:21:29.920Z,48.85
2023-03-07T11:24:03.459Z,44.38
2023-03-07T11:26:39.206Z,42.75
2023-03-07T11:29:14.531Z,47.22
2023-03-07T11:31:56.961Z,47.13
2023-03-07T11:34:51.896Z,44.85
2023-03-07T11:37:39.585Z,46.13
2023-03-07T11:40:28.020Z,45.05
2023-03-07T11:43:15.871Z,42.80
2023-03-07T11:45:46.012Z,44.00
2023-03-07T11:48:21.429Z,41.65
2023-03-07T11:50:55.881Z,42.08
2023-03-07T11:53:47.802Z,43.38
2023-03-07T11:56:35.196Z,40.92
2023-03-07T11:59:21.030Z,45.10
2023-03-07T12:01:57.374Z,44.63
2023-03-07T12:04:46.088Z,42.63
2023-03-07T12:07:45.283Z,45.42
2023-03-07T12:10:33.606Z,44.97
2023-03-07T12:13:24.772Z,47.65
2023-03-07T12:16:06.840Z,45.00
2023-03-07T12:19:10.602Z,44.58
2023-03-07T12:21:40.808Z,46.03
2023-03-07T12:27:02.887Z,42.97
2023-03-07T12:29:41.761Z,42.50
2023-03-07T12:32:21.862Z,42.78
2023-03-07T12:37:31.048Z,42.58
2023-03-07T12:40:37.160Z,39.75
2023-03-07T12:43:19.648Z,41.03
2023-03-07T12:46:24.828Z,42.05
2023-03-07T12:49:02.482Z,42.55
2023-03-07T12:51:52.348Z,38.72
2023-03-07T12:54:39.940Z,38.22
2023-03-07T12:57:19.337Z,40.30
2023-03-07T12:59:46.556Z,42.33
2023-03-07T13:02:54.323Z,43.05
2023-03-07T13:05:22.405Z,40.78
2023-03-07T13:07:50.440Z,40.92
2023-03-07T13:10:23.566Z,36.90
2023-03-07T13:12:52.326Z,41.78
2023-03-07T13:15:19.501Z,42.25
2023-03-07T13:17:46.705Z,39.67
2023-03-07T13:20:19.316Z,39.88
2023-03-07T13:22:46.526Z,39.63
2023-03-07T13:25:23.345Z,43.95
2023-03-07T13:27:58.252Z,40.70
2023-03-07T13:30:33.388Z,41.67
2023-03-07T13:33:02.948Z,40.17
2023-03-07T13:35:36.070Z,44.00
2023-03-07T13:38:24.822Z,42.28
2023-03-07T13:40:55.830Z,39.85
2023-03-07T13:43:24.165Z,41.42
2023-03-07T13:46:00.923Z,42.92
2023-03-07T13:48:31.040Z,45.38
2023-03-07T13:51:01.279Z,41.85
2023-03-07T13:56:02.351Z,46.78
2023-03-07T13:58:35.533Z,45.28
2023-03-07T14:01:14.988Z,39.25
2023-03-07T14:03:53.258Z,43.28
2023-03-07T14:06:28.318Z,44.55
2023-03-07T14:08:55.831Z,43.30
2023-03-07T14:11:32.892Z,42.53
2023-03-07T14:14:21.973Z,43.05
2023-03-07T14:17:33.739Z,43.60
2023-03-07T14:20:24.043Z,45.75
2023-03-07T14:25:35.142Z,46.35
2023-03-07T14:28:18.167Z,45.60
2023-03-07T14:30:59.178Z,49.08
2023-03-07T14:33:37.694Z,47.13
2023-03-07T14:36:19.882Z,48.08
2023-03-07T14:38:48.791Z,44.40
2023-03-07T14:41:26.035Z,46.20
2023-03-07T14:44:06.168Z,41.47
2023-03-07T14:47:18.074Z,47.45
2023-03-07T14:49:45.256Z,48.13
2023-03-07T14:52:28.365Z,51.08
2023-03-07T14:55:02.181Z,58.55
2023-03-07T14:57:37.006Z,60.05
2023-03-07T15:00:14.170Z,46.65
2023-03-07T15:02:53.433Z,52.83
2023-03-07T15:05:30.026Z,45.77
2023-03-07T15:07:58.048Z,50.63
2023-03-07T15:10:29.695Z,53.47
2023-03-07T15:12:58.180Z,47.80
2023-03-07T15:15:34.612Z,53.58
2023-03-07T15:18:14.856Z,49.88
2023-03-07T15:23:21.973Z,47.97
2023-03-07T15:25:49.760Z,44.38
2023-03-07T15:28:37.624Z,52.63
2023-03-07T15:31:05.204Z,46.88
2023-03-07T15:33:33.535Z,52.97
2023-03-07T15:36:08.436Z,47.05
2023-03-07T15:38:35.842Z,67.13
2023-03-07T15:41:23.123Z,59.83
2023-03-07T15:44:04.263Z,60.63
2023-03-07T15:46:33.118Z,62.67
2023-03-07T15:49:00.454Z,55.10
2023-03-07T15:51:36.318Z,54.63
2023-03-07T15:54:31.324Z,49.72
2023-03-07T15:57:04.502Z,47.95
2023-03-07T15:59:36.559Z,50.55
2023-03-07T16:02:32.658Z,46.80
2023-03-07T16:05:02.058Z,48.83
2023-03-07T16:07:29.359Z,45.40
2023-03-07T16:09:56.550Z,48.42
2023-03-07T16:12:25.561Z,55.40
2023-03-07T16:14:54.964Z,54.83
2023-03-07T16:17:30.189Z,52.47
2023-03-07T16:19:57.654Z,51.50
2023-03-07T16:22:24.815Z,52.63
2023-03-07T16:24:52.180Z,49.72
2023-03-07T16:27:22.403Z,48.15
2023-03-07T16:32:18.942Z,50.20
2023-03-07T16:34:46.225Z,49.45
2023-03-07T16:37:13.705Z,53.10
2023-03-07T16:39:41.378Z,55.60
2023-03-07T16:42:21.759Z,46.65
2023-03-07T16:44:49.777Z,52.88
2023-03-07T16:47:18.861Z,56.57
2023-03-07T16:49:49.272Z,48.67
2023-03-07T16:52:16.407Z,51.17
2023-03-07T16:54:43.580Z,49.67
2023-03-07T16:57:15.347Z,50.35
2023-03-07T16:59:47.359Z,48.03
2023-03-07T17:02:19.812Z,46.08
2023-03-07T17:04:47.563Z,45.25
2023-03-07T17:07:19.764Z,41.35
2023-03-07T17:09:47.026Z,40.47
2023-03-07T17:12:14.866Z,43.55
2023-03-07T17:14:43.032Z,40.15
2023-03-07T17:17:19.221Z,28.50
2023-03-07T17:19:46.351Z,26.95
2023-03-07T17:22:13.674Z,15.70
2023-03-07T17:24:40.876Z,10.52
2023-03-07T17:27:09.008Z,11.27
2023-03-07T17:29:43.840Z,8.07
2023-03-07T17:32:11.489Z,10.40
2023-03-07T17:34:39.542Z,8.23
2023-03-07T17:37:07.095Z,10.45
2023-03-07T17:39:35.067Z,9.73
2023-03-07T17:42:03.217Z,7.53
2023-03-07T17:44:30.399Z,8.85
2023-03-07T17:46:57.835Z,7.68
2023-03-07T17:49:28.503Z,9.10
2023-03-07T17:51:55.710Z,6.18
2023-03-07T17:54:22.941Z,6.03
2023-03-07T17:56:50.240Z,7.18
2023-03-07T17:59:17.374Z,5.47
2023-03-07T18:01:44.817Z,7.07
2023-03-07T18:04:12.492Z,6.30
2023-03-07T18:06:40.997Z,7.13
2023-03-07T18:09:09.533Z,5.90
2023-03-07T18:11:37.112Z,6.43
2023-03-07T18:14:04.204Z,6.72
2023-03-07T18:16:31.792Z,6.18
2023-03-07T18:19:01.761Z,8.55
2023-03-07T18:21:30.619Z,6.53
2023-03-07T18:23:58.260Z,6.30
2023-03-07T18:26:25.487Z,6.03
2023-03-07T18:28:54.007Z,3.72
2023-03-07T18:31:25.366Z,6.47
2023-03-07T18:33:53.532Z,4.72
2023-03-07T18:36:23.121Z,6.50
2023-03-07T18:38:50.582Z,5.72
2023-03-07T18:41:20.761Z,5.47
2023-03-07T18:46:18.691Z,5.32
2023-03-07T18:48:46.098Z,8.50
2023-03-07T18:51:25.286Z,9.00
2023-03-07T18:53:58.585Z,7.18
2023-03-07T18:56:27.180Z,7.75
2023-03-07T18:58:56.281Z,5.35
2023-03-07T19:01:27.442Z,9.02
2023-03-07T19:03:56.117Z,13.82
2023-03-07T19:06:25.922Z,11.05
2023-03-07T19:08:53.327Z,9.15
2023-03-07T19:11:20.881Z,14.23
2023-03-07T19:13:50.757Z,10.25
2023-03-07T19:16:20.909Z,12.48
2023-03-07T19:21:23.247Z,11.10
2023-03-07T19:23:52.011Z,10.73
2023-03-07T19:26:20.220Z,12.07
2023-03-07T19:28:50.091Z,11.85
2023-03-07T19:31:20.504Z,11.90
2023-03-07T19:33:50.113Z,10.88
2023-03-07T19:36:27.170Z,12.02
2023-03-07T19:38:57.318Z,10.68
2023-03-07T19:41:26.520Z,13.07
2023-03-07T19:43:55.961Z,11.63
2023-03-07T19:46:23.649Z,13.35
2023-03-07T19:48:50.769Z,10.10
2023-03-07T19:51:23.245Z,9.02
2023-03-07T19:53:51.282Z,10.88
2023-03-07T19:56:24.665Z,10.85
2023-03-07T19:58:51.937Z,11.70
2023-03-07T20:01:20.115Z,11.38
2023-03-07T20:03:48.327Z,9.65
2023-03-07T20:06:27.003Z,10.95
2023-03-07T20:08:55.284Z,8.85
2023-03-07T20:11:27.148Z,11.07
2023-03-07T20:13:56.933Z,11.52
2023-03-07T20:16:25.010Z,11.65
2023-03-07T20:18:53.770Z,11.40
2023-03-07T20:21:26.278Z,10.90
2023-03-07T20:23:55.969Z,14.18
2023-03-07T20:26:28.755Z,13.63
2023-03-07T20:28:57.059Z,12.70
2023-03-07T20:31:24.505Z,16.73
2023-03-07T20:33:51.820Z,17.48
2023-03-07T20:36:25.048Z,16.10
2023-03-07T20:38:57.461Z,15.20
2023-03-07T20:41:26.640Z,12.32
2023-03-07T20:43:57.124Z,16.60
2023-03-07T20:46:24.299Z,13.93
2023-03-07T20:48:54.826Z,14.40
2023-03-07T20:51:24.199Z,15.48
2023-03-07T20:53:54.664Z,13.73
2023-03-07T20:56:22.912Z,16.85
2023-03-07T20:58:50.426Z,15.98
2023-03-07T21:01:19.306Z,14.80
2023-03-07T21:03:48.298Z,18.33
2023-03-07T21:06:16.356Z,15.85
2023-03-07T21:08:44.124Z,12.57
2023-03-07T21:11:13.789Z,14.57
2023-03-07T21:13:42.847Z,16.38
2023-03-07T21:16:13.166Z,13.95
2023-03-07T21:18:40.529Z,15.73
2023-03-07T21:21:13.720Z,14.00
2023-03-07T21:23:41.367Z,14.25
2023-03-07T21:26:10.039Z,13.98
2023-03-07T21:28:37.832Z,16.35
2023-03-07T21:31:22.566Z,17.75
2023-03-07T21:33:53.935Z,18.30
2023-03-07T21:36:21.481Z,22.52
2023-03-07T21:38:49.077Z,17.52
2023-03-07T21:41:18.963Z,20.58
2023-03-07T21:43:46.234Z,16.98
2023-03-07T21:46:14.171Z,20.30
2023-03-07T21:48:42.325Z,21.65
2023-03-07T21:51:10.044Z,19.52
2023-03-07T21:53:37.770Z,20.73
2023-03-07T21:56:10.368Z,22.30
2023-03-07T21:58:38.421Z,17.80
2023-03-07T22:01:22.307Z,20.98
2023-03-07T22:03:55.701Z,16.73
2023-03-07T22:06:23.841Z,19.83
2023-03-07T22:08:51.354Z,19.05
2023-03-07T22:11:18.496Z,21.55
2023-03-07T22:13:45.515Z,19.73
2023-03-07T22:16:15.682Z,21.70
2023-03-07T22:21:13.697Z,16.17
2023-03-07T22:23:41.383Z,19.83
2023-03-07T22:26:10.578Z,19.95
2023-03-07T22:28:38.105Z,22.10
2023-03-07T22:31:07.690Z,21.30
2023-03-07T22:33:35.407Z,20.17
2023-03-07T22:36:04.858Z,18.00
2023-03-07T22:38:32.393Z,19.90
2023-03-07T22:41:03.634Z,19.45
2023-03-07T22:43:32.078Z,21.17
2023-03-07T22:45:59.476Z,23.40
2023-03-07T22:48:27.013Z,20.48
2023-03-07T22:50:54.393Z,18.83
2023-03-07T22:53:21.789Z,19.55
2023-03-07T22:55:48.906Z,20.13
2023-03-07T22:58:16.739Z,19.63
2023-03-07T23:00:45.286Z,21.90
2023-03-07T23:03:12.511Z,21.92
2023-03-07T23:05:39.643Z,19.63
2023-03-07T23:08:07.108Z,22.35
2023-03-07T23:10:34.294Z,23.08
2023-03-07T23:13:01.547Z,24.95
2023-03-07T23:15:29.232Z,17.55
2023-03-07T23:17:56.693Z,17.02
2023-03-07T23:20:26.460Z,18.95
2023-03-07T23:22:53.843Z,21.98
2023-03-07T23:25:21.626Z,20.70
2023-03-07T23:27:48.762Z,23.83
2023-03-07T23:30:18.008Z,21.75
2023-03-07T23:32:45.182Z,20.15
2023-03-07T23:35:12.678Z,17.35
2023-03-07T23:37:41.971Z,18.45
2023-03-07T23:40:12.256Z,17.53
2023-03-07T23:45:06.791Z,14.90
2023-03-07T23:47:34.588Z,18.13
2023-03-07T23:50:01.619Z,20.38
2023-03-07T23:52:28.708Z,20.98
2023-03-07T23:54:55.915Z,18.02
2023-03-07T23:57:23.018Z,19.35
2023-03-07T23:59:50.073Z,17.40
